createdAt,value
2023-06-29T00:01:59.029Z,14.38
2023-06-29T00:04:27.043Z,14.50
2023-06-29T00:06:55.828Z,14.93
2023-06-29T00:09:23.752Z,14.70
2023-06-29T00:11:50.903Z,15.30
2023-06-29T00:14:17.844Z,14.90
2023-06-29T00:16:44.899Z,14.23
2023-06-29T00:19:15.655Z,14.48
2023-06-29T00:21:42.723Z,14.40
2023-06-29T00:24:12.303Z,14.57
2023-06-29T00:26:39.543Z,14.07
2023-06-29T00:29:06.750Z,15.43
2023-06-29T00:31:33.701Z,14.77
2023-06-29T00:34:00.732Z,14.93
2023-06-29T00:36:27.554Z,14.65
2023-06-29T00:38:54.362Z,15.98
2023-06-29T00:41:21.176Z,15.82
2023-06-29T00:43:48.029Z,15.30
2023-06-29T00:46:19.268Z,15.18
2023-06-29T00:48:46.371Z,15.13
2023-06-29T00:51:14.640Z,15.57
2023-06-29T00:53:41.709Z,14.95
2023-06-29T00:56:08.658Z,15.38
2023-06-29T00:58:36.062Z,15.98
2023-06-29T01:01:02.902Z,15.07
2023-06-29T01:03:32.029Z,15.90
2023-06-29T01:06:05.827Z,16.50
2023-06-29T01:08:42.206Z,16.17
2023-06-29T01:11:09.646Z,16.30
2023-06-29T01:13:38.700Z,16.52
2023-06-29T01:16:07.576Z,16.33
2023-06-29T01:18:35.457Z,16.70
2023-06-29T01:21:03.646Z,16.10
2023-06-29T01:23:38.186Z,16.73
2023-06-29T01:26:06.591Z,17.48
2023-06-29T01:28:39.302Z,17.65
2023-06-29T01:31:06.679Z,16.65
2023-06-29T01:33:34.523Z,17.85
2023-06-29T01:36:08.382Z,17.90
2023-06-29T01:38:41.126Z,18.02
2023-06-29T01:41:09.230Z,17.90
2023-06-29T01:43:36.701Z,18.38
2023-06-29T01:46:05.303Z,18.95
2023-06-29T01:48:33.700Z,17.17
2023-06-29T01:51:00.716Z,18.60
2023-06-29T01:53:29.820Z,18.85
2023-06-29T01:55:58.593Z,18.40
2023-06-29T01:58:25.462Z,18.70
2023-06-29T02:00:52.442Z,19.80
2023-06-29T02:03:19.401Z,20.33
2023-06-29T02:05:46.403Z,19.33
2023-06-29T02:08:13.290Z,19.50
2023-06-29T02:10:40.123Z,20.67
2023-06-29T02:13:07.116Z,20.15
2023-06-29T02:15:33.914Z,19.70
2023-06-29T02:18:00.835Z,19.85
2023-06-29T02:20:27.689Z,20.67
2023-06-29T02:22:54.985Z,19.98
2023-06-29T02:25:21.969Z,21.05
2023-06-29T02:27:48.848Z,19.85
2023-06-29T02:30:15.859Z,20.20
2023-06-29T02:32:42.870Z,20.02
2023-06-29T02:35:10.191Z,20.75
2023-06-29T02:37:37.133Z,21.02
2023-06-29T02:40:04.338Z,20.17
2023-06-29T02:42:31.261Z,19.95
2023-06-29T02:44:58.024Z,20.90
2023-06-29T02:47:24.854Z,21.10
2023-06-29T02:49:51.723Z,20.75
2023-06-29T02:52:18.734Z,20.33
2023-06-29T02:54:45.576Z,20.13
2023-06-29T02:57:12.376Z,20.63
2023-06-29T02:59:39.459Z,20.60
2023-06-29T03:02:06.662Z,21.08
2023-06-29T03:04:33.498Z,20.10
2023-06-29T03:07:00.302Z,19.55
2023-06-29T03:09:27.122Z,19.73
2023-06-29T03:11:54.247Z,19.63
2023-06-29T03:14:23.000Z,19.27
2023-06-29T03:16:52.532Z,19.58
2023-06-29T03:19:19.308Z,19.00
2023-06-29T03:21:46.085Z,18.10
2023-06-29T03:24:12.975Z,18.23
2023-06-29T03:26:39.746Z,19.33
2023-06-29T03:29:06.549Z,18.17
2023-06-29T03:31:33.335Z,19.63
2023-06-29T03:34:01.467Z,19.08
2023-06-29T03:36:28.296Z,19.88
2023-06-29T03:38:55.112Z,19.50
2023-06-29T03:41:21.890Z,19.50
2023-06-29T03:43:48.964Z,18.63
2023-06-29T03:46:15.745Z,20.08
2023-06-29T03:48:42.565Z,19.42
2023-06-29T03:51:09.376Z,20.40
2023-06-29T03:53:36.153Z,20.33
2023-06-29T03:56:03.050Z,19.52
2023-06-29T03:58:29.877Z,20.85
2023-06-29T04:00:56.803Z,20.05
2023-06-29T04:03:23.803Z,19.55
2023-06-29T04:05:50.724Z,20.23
2023-06-29T04:08:17.824Z,20.70
2023-06-29T04:10:44.637Z,20.55
2023-06-29T04:13:11.435Z,19.50
2023-06-29T04:15:38.239Z,21.45
2023-06-29T04:18:05.178Z,19.88
2023-06-29T04:20:33.937Z,19.98
2023-06-29T04:23:00.872Z,20.67
2023-06-29T04:25:27.697Z,21.88
2023-06-29T04:27:54.568Z,20.02
2023-06-29T04:30:21.397Z,19.88
2023-06-29T04:32:48.400Z,19.98
2023-06-29T04:35:16.291Z,20.52
2023-06-29T04:37:43.242Z,20.98
2023-06-29T04:40:11.816Z,19.92
2023-06-29T04:42:44.853Z,20.42
2023-06-29T04:45:14.145Z,20.70
2023-06-29T04:47:42.289Z,22.08
2023-06-29T04:50:09.639Z,20.63
2023-06-29T04:52:38.088Z,20.63
2023-06-29T04:55:05.623Z,20.20
2023-06-29T04:57:32.482Z,20.95
2023-06-29T04:59:59.395Z,19.90
2023-06-29T05:02:26.347Z,21.00
2023-06-29T05:04:56.451Z,21.63
2023-06-29T05:07:23.317Z,21.50
2023-06-29T05:09:50.245Z,20.42
2023-06-29T05:12:17.351Z,21.25
2023-06-29T05:14:44.138Z,21.42
2023-06-29T05:17:11.004Z,20.95
2023-06-29T05:19:37.794Z,20.52
2023-06-29T05:22:04.781Z,22.27
2023-06-29T05:24:31.658Z,21.35
2023-06-29T05:26:58.541Z,22.17
2023-06-29T05:29:25.888Z,21.60
2023-06-29T05:31:52.819Z,21.63
2023-06-29T05:34:19.728Z,21.90
2023-06-29T05:36:46.527Z,21.95
2023-06-29T05:39:13.395Z,20.83
2023-06-29T05:41:40.250Z,23.08
2023-06-29T05:44:10.119Z,21.63
2023-06-29T05:46:37.467Z,22.67
2023-06-29T05:49:04.833Z,21.98
2023-06-29T05:51:33.108Z,21.85
2023-06-29T05:53:59.954Z,21.58
2023-06-29T05:56:26.853Z,21.25
2023-06-29T05:58:54.774Z,21.60
2023-06-29T06:01:21.874Z,21.45
2023-06-29T06:03:48.964Z,21.08
2023-06-29T06:06:16.379Z,22.23
2023-06-29T06:08:43.162Z,21.15
2023-06-29T06:11:09.966Z,21.33
2023-06-29T06:13:36.853Z,21.27
2023-06-29T06:16:05.816Z,22.58
2023-06-29T06:18:32.717Z,21.20
2023-06-29T06:20:59.596Z,19.83
2023-06-29T06:23:26.392Z,21.15
2023-06-29T06:25:53.187Z,20.92
2023-06-29T06:28:20.683Z,21.30
2023-06-29T06:30:52.497Z,20.95
2023-06-29T06:33:21.237Z,21.92
2023-06-29T06:35:48.207Z,20.88
2023-06-29T06:38:15.334Z,21.02
2023-06-29T06:40:42.841Z,22.20
2023-06-29T06:43:09.849Z,22.48
2023-06-29T06:45:36.725Z,22.77
2023-06-29T06:48:03.764Z,21.25
2023-06-29T06:50:30.829Z,22.25
2023-06-29T06:52:57.626Z,21.92
2023-06-29T06:55:24.535Z,21.15
2023-06-29T06:57:51.475Z,21.15
2023-06-29T07:00:19.025Z,21.15
2023-06-29T07:02:46.061Z,20.33
2023-06-29T07:05:12.898Z,21.15
2023-06-29T07:07:39.792Z,21.88
2023-06-29T07:10:07.080Z,20.80
2023-06-29T07:12:33.887Z,20.42
2023-06-29T07:15:00.742Z,21.92
2023-06-29T07:17:28.858Z,22.35
2023-06-29T07:24:58.349Z,21.00
2023-06-29T07:27:25.320Z,19.50
2023-06-29T07:29:52.087Z,21.42
2023-06-29T07:32:18.983Z,20.85
2023-06-29T07:34:45.783Z,20.80
2023-06-29T07:37:12.648Z,20.80
2023-06-29T07:39:39.488Z,21.33
2023-06-29T07:42:06.437Z,19.52
2023-06-29T07:44:33.281Z,19.73
2023-06-29T07:47:00.726Z,19.52
2023-06-29T07:49:27.518Z,19.25
2023-06-29T07:51:54.338Z,19.25
2023-06-29T07:54:21.108Z,18.85
2023-06-29T07:59:20.332Z,18.10
2023-06-29T08:01:50.025Z,18.70
2023-06-29T08:04:17.774Z,18.67
2023-06-29T08:07:07.554Z,20.10
2023-06-29T08:09:36.994Z,19.10
2023-06-29T08:12:04.496Z,19.65
2023-06-29T08:14:34.126Z,18.52
2023-06-29T08:17:01.343Z,19.27
2023-06-29T08:19:28.495Z,20.25
2023-06-29T08:21:56.866Z,19.80
2023-06-29T08:24:24.179Z,20.23
2023-06-29T08:26:51.382Z,19.58
2023-06-29T08:29:18.541Z,18.88
2023-06-29T08:31:46.188Z,19.35
2023-06-29T08:34:13.619Z,18.88
2023-06-29T08:36:40.859Z,19.02
2023-06-29T08:39:10.092Z,19.38
2023-06-29T08:41:37.587Z,18.55
2023-06-29T08:44:05.791Z,19.30
2023-06-29T08:46:34.553Z,19.10
2023-06-29T08:49:02.381Z,20.50
2023-06-29T08:51:32.033Z,20.50
2023-06-29T08:53:59.497Z,19.25
2023-06-29T08:56:27.361Z,19.15
2023-06-29T08:58:56.182Z,17.58
2023-06-29T09:01:24.615Z,18.27
2023-06-29T09:03:52.789Z,18.80
2023-06-29T09:06:20.183Z,19.10
2023-06-29T09:08:47.520Z,19.83
2023-06-29T09:11:14.816Z,21.27
2023-06-29T09:13:42.005Z,19.60
2023-06-29T09:16:10.207Z,19.98
2023-06-29T09:18:37.411Z,20.92
2023-06-29T09:21:05.591Z,22.05
2023-06-29T09:23:34.732Z,20.17
2023-06-29T09:26:06.005Z,20.48
2023-06-29T09:28:36.905Z,21.05
2023-06-29T09:31:10.135Z,21.38
2023-06-29T09:33:37.413Z,20.80
2023-06-29T09:36:09.677Z,20.10
2023-06-29T09:38:37.814Z,21.80
2023-06-29T09:41:08.000Z,22.48
2023-06-29T09:43:35.097Z,21.20
2023-06-29T09:46:09.111Z,21.02
2023-06-29T09:51:24.191Z,22.30
2023-06-29T09:53:51.545Z,22.27
2023-06-29T09:56:19.024Z,23.80
2023-06-29T09:58:47.750Z,23.50
2023-06-29T10:01:17.563Z,24.00
2023-06-29T10:03:45.842Z,24.73
2023-06-29T10:06:17.295Z,24.48
2023-06-29T10:08:46.500Z,23.90
2023-06-29T10:11:14.682Z,25.08
2023-06-29T10:13:48.961Z,25.20
2023-06-29T10:16:18.490Z,24.02
2023-06-29T10:18:48.586Z,25.30
2023-06-29T10:21:16.405Z,26.02
2023-06-29T10:23:45.606Z,24.23
2023-06-29T10:26:13.793Z,27.48
2023-06-29T10:31:22.569Z,27.58
2023-06-29T10:33:50.502Z,27.80
2023-06-29T10:36:19.077Z,26.58
2023-06-29T10:38:46.580Z,27.90
2023-06-29T10:41:29.660Z,28.33
2023-06-29T10:44:02.049Z,26.75
2023-06-29T10:46:45.721Z,26.95
2023-06-29T10:49:26.865Z,28.90
2023-06-29T10:51:56.310Z,29.35
2023-06-29T10:54:24.657Z,28.35
2023-06-29T10:56:57.998Z,29.15
2023-06-29T10:59:26.447Z,27.98
2023-06-29T11:01:54.600Z,30.23
2023-06-29T11:04:24.657Z,28.85
2023-06-29T11:06:52.626Z,29.70
2023-06-29T11:09:21.036Z,30.23
2023-06-29T11:11:49.714Z,28.25
2023-06-29T11:14:20.458Z,29.63
2023-06-29T11:16:48.542Z,29.48
2023-06-29T11:19:15.841Z,28.52
2023-06-29T11:21:43.128Z,30.73
2023-06-29T11:24:11.357Z,29.55
2023-06-29T11:26:39.045Z,29.52
2023-06-29T11:29:09.641Z,28.92
2023-06-29T11:31:36.945Z,29.88
2023-06-29T11:34:04.209Z,28.42
2023-06-29T11:36:34.275Z,29.77
2023-06-29T11:39:12.502Z,30.23
2023-06-29T11:41:41.278Z,29.05
2023-06-29T11:44:11.315Z,31.05
2023-06-29T11:46:50.269Z,28.98
2023-06-29T11:49:23.066Z,30.70
2023-06-29T11:51:51.284Z,31.00
2023-06-29T11:54:19.159Z,29.80
2023-06-29T11:56:46.210Z,30.63
2023-06-29T11:59:17.325Z,30.52
2023-06-29T12:01:48.503Z,30.75
2023-06-29T12:04:16.166Z,28.98
2023-06-29T12:06:53.870Z,29.77
2023-06-29T12:09:21.656Z,29.65
2023-06-29T12:12:00.292Z,19.40
2023-06-29T12:14:32.932Z,16.02
2023-06-29T12:19:38.688Z,14.23
2023-06-29T12:22:15.490Z,13.07
2023-06-29T12:24:42.605Z,12.88
2023-06-29T12:27:09.766Z,12.77
2023-06-29T12:29:37.787Z,13.65
2023-06-29T12:32:07.172Z,13.88
2023-06-29T12:34:34.420Z,14.60
2023-06-29T12:37:03.844Z,13.63
2023-06-29T12:39:33.436Z,13.43
2023-06-29T12:42:01.730Z,14.45
2023-06-29T12:44:28.883Z,14.82
2023-06-29T12:46:57.766Z,14.70
2023-06-29T12:49:27.609Z,14.25
2023-06-29T12:51:55.100Z,15.57
2023-06-29T12:54:22.004Z,14.65
2023-06-29T12:56:49.531Z,14.10
2023-06-29T12:59:16.667Z,14.25
2023-06-29T13:01:43.784Z,13.60
2023-06-29T13:04:11.026Z,14.75
2023-06-29T13:06:40.538Z,14.38
2023-06-29T13:09:08.413Z,14.63
2023-06-29T13:11:36.316Z,15.52
2023-06-29T13:14:03.501Z,14.18
2023-06-29T13:16:34.132Z,14.77
2023-06-29T13:19:02.455Z,14.15
2023-06-29T13:21:29.926Z,14.93
2023-06-29T13:23:57.195Z,14.80
2023-06-29T13:26:24.330Z,16.02
2023-06-29T13:28:51.592Z,14.57
2023-06-29T13:31:18.926Z,14.40
2023-06-29T13:33:46.574Z,15.52
2023-06-29T13:36:13.522Z,16.00
2023-06-29T13:38:40.826Z,15.43
2023-06-29T13:41:08.033Z,15.32
2023-06-29T13:43:35.082Z,16.15
2023-06-29T13:46:02.247Z,15.43
2023-06-29T13:48:29.454Z,15.00
2023-06-29T13:50:56.648Z,16.45
2023-06-29T13:53:25.451Z,14.55
2023-06-29T13:55:52.603Z,16.10
2023-06-29T13:58:19.882Z,15.15
2023-06-29T14:00:47.076Z,14.43
2023-06-29T14:03:14.376Z,14.57
2023-06-29T14:05:41.736Z,16.27
2023-06-29T14:08:08.789Z,15.68
2023-06-29T14:10:35.921Z,15.73
2023-06-29T14:13:02.944Z,15.73
2023-06-29T14:15:30.169Z,16.55
2023-06-29T14:17:57.098Z,15.75
2023-06-29T14:20:24.268Z,16.65
2023-06-29T14:22:51.571Z,16.63
2023-06-29T14:25:18.887Z,15.63
2023-06-29T14:27:45.885Z,16.15
2023-06-29T14:30:13.553Z,16.48
2023-06-29T14:32:41.107Z,17.52
2023-06-29T14:35:08.723Z,17.63
2023-06-29T14:37:35.888Z,17.30
2023-06-29T14:40:04.161Z,20.83
2023-06-29T14:42:32.219Z,16.65
2023-06-29T14:44:59.449Z,17.30
2023-06-29T14:47:26.515Z,16.42
2023-06-29T14:49:53.558Z,16.17
2023-06-29T14:52:21.064Z,16.10
2023-06-29T14:54:48.084Z,15.40
2023-06-29T14:57:15.273Z,15.27
2023-06-29T14:59:42.369Z,15.15
2023-06-29T15:02:09.450Z,14.85
2023-06-29T15:04:36.692Z,15.73
2023-06-29T15:07:03.882Z,15.52
2023-06-29T15:09:31.510Z,15.85
2023-06-29T15:12:03.426Z,14.93
2023-06-29T15:14:31.211Z,15.23
2023-06-29T15:16:58.403Z,14.45
2023-06-29T15:19:26.450Z,11.73
2023-06-29T15:21:53.552Z,10.98
2023-06-29T15:24:20.897Z,9.98
2023-06-29T15:26:48.880Z,10.88
2023-06-29T15:29:16.041Z,11.77
2023-06-29T15:31:43.325Z,11.77
2023-06-29T15:34:10.485Z,11.27
2023-06-29T15:36:37.759Z,11.90
2023-06-29T15:39:05.011Z,10.55
2023-06-29T15:41:32.246Z,10.48
2023-06-29T15:44:01.610Z,10.13
2023-06-29T15:46:30.010Z,10.43
2023-06-29T15:48:58.043Z,9.82
2023-06-29T15:51:26.564Z,8.65
2023-06-29T15:53:55.010Z,9.23
2023-06-29T15:56:22.286Z,7.50
2023-06-29T15:58:49.640Z,8.88
2023-06-29T16:01:16.774Z,6.50
2023-06-29T16:03:43.989Z,5.65
2023-06-29T16:06:11.279Z,5.85
2023-06-29T16:08:39.027Z,4.80
2023-06-29T16:11:06.111Z,5.70
2023-06-29T16:13:33.267Z,6.30
2023-06-29T16:16:00.580Z,4.22
2023-06-29T16:18:27.879Z,4.65
2023-06-29T16:20:54.935Z,4.90
2023-06-29T16:23:22.042Z,4.28
2023-06-29T16:25:49.419Z,4.43
2023-06-29T16:28:16.605Z,4.53
2023-06-29T16:30:43.817Z,3.92
2023-06-29T16:33:11.448Z,3.45
2023-06-29T16:35:38.589Z,3.88
2023-06-29T16:38:05.843Z,3.05
2023-06-29T16:40:33.045Z,3.00
2023-06-29T16:43:00.141Z,3.28
2023-06-29T16:45:27.913Z,3.20
2023-06-29T16:47:56.994Z,3.17
2023-06-29T16:50:24.433Z,3.15
2023-06-29T16:52:51.413Z,2.80
2023-06-29T16:55:18.538Z,3.10
2023-06-29T16:57:45.773Z,2.72
2023-06-29T17:00:13.412Z,2.60
2023-06-29T17:02:40.750Z,2.97
2023-06-29T17:05:08.642Z,3.15
2023-06-29T17:07:35.902Z,3.17
2023-06-29T17:10:03.107Z,2.65
2023-06-29T17:12:30.215Z,2.90
2023-06-29T17:14:57.524Z,3.22
2023-06-29T17:17:24.503Z,2.70
2023-06-29T17:19:52.452Z,2.75
2023-06-29T17:22:20.384Z,2.55
2023-06-29T17:24:47.474Z,1.88
2023-06-29T17:27:14.838Z,1.92
2023-06-29T17:29:42.362Z,1.90
2023-06-29T17:32:09.936Z,2.78
2023-06-29T17:34:37.942Z,2.78
2023-06-29T17:37:05.399Z,3.40
2023-06-29T17:39:32.631Z,3.60
2023-06-29T17:42:00.343Z,4.53
2023-06-29T17:44:27.927Z,5.88
2023-06-29T17:46:54.969Z,5.47
2023-06-29T17:49:22.558Z,6.82
2023-06-29T17:51:49.886Z,6.97
2023-06-29T17:54:17.017Z,5.90
2023-06-29T17:56:44.083Z,5.97
2023-06-29T17:59:11.496Z,5.90
2023-06-29T18:01:38.776Z,5.68
2023-06-29T18:04:06.305Z,5.10
2023-06-29T18:06:35.688Z,5.00
2023-06-29T18:09:03.057Z,4.95
2023-06-29T18:11:30.229Z,4.90
2023-06-29T18:13:59.130Z,4.03
2023-06-29T18:16:26.520Z,3.80
2023-06-29T18:18:53.789Z,3.90
2023-06-29T18:21:20.907Z,3.95
2023-06-29T18:23:48.312Z,4.18
2023-06-29T18:26:15.473Z,3.55
2023-06-29T18:28:42.620Z,3.30
2023-06-29T18:31:10.226Z,4.05
2023-06-29T18:33:37.288Z,3.42
2023-06-29T18:36:04.546Z,3.55
2023-06-29T18:38:31.673Z,3.67
2023-06-29T18:41:03.079Z,3.50
2023-06-29T18:43:30.264Z,3.95
2023-06-29T18:45:57.536Z,3.60
2023-06-29T18:48:24.622Z,3.78
2023-06-29T18:50:51.837Z,4.22
2023-06-29T18:53:19.433Z,4.72
2023-06-29T18:55:46.780Z,4.60
2023-06-29T18:58:14.066Z,4.90
2023-06-29T19:00:41.488Z,4.70
2023-06-29T19:03:08.808Z,4.43
2023-06-29T19:05:35.987Z,3.88
2023-06-29T19:08:03.120Z,3.65
2023-06-29T19:10:30.578Z,2.60
2023-06-29T19:12:57.881Z,2.80
2023-06-29T19:15:25.365Z,2.10
2023-06-29T19:17:52.430Z,1.70
2023-06-29T19:20:19.963Z,1.50
2023-06-29T19:22:47.165Z,1.70
2023-06-29T19:25:14.209Z,1.52
2023-06-29T19:27:41.568Z,1.73
2023-06-29T19:30:09.437Z,1.45
2023-06-29T19:32:36.910Z,1.45
2023-06-29T19:35:04.977Z,1.48
2023-06-29T19:37:32.087Z,1.70
2023-06-29T19:39:59.269Z,1.63
2023-06-29T19:42:26.352Z,1.58
2023-06-29T19:44:53.756Z,1.70
2023-06-29T19:47:21.269Z,1.73
2023-06-29T19:49:48.761Z,1.80
2023-06-29T19:52:19.375Z,2.00
2023-06-29T19:54:46.924Z,2.70
2023-06-29T19:57:14.235Z,1.70
2023-06-29T19:59:44.457Z,1.60
2023-06-29T20:02:11.774Z,1.75
2023-06-29T20:04:38.901Z,2.40
2023-06-29T20:07:06.415Z,3.00
2023-06-29T20:09:33.389Z,1.92
2023-06-29T20:12:00.647Z,2.10
2023-06-29T20:14:29.992Z,1.92
2023-06-29T20:16:57.620Z,1.70
2023-06-29T20:19:27.739Z,1.73
2023-06-29T20:21:54.846Z,2.70
2023-06-29T20:24:21.962Z,1.95
2023-06-29T20:26:49.171Z,1.90
2023-06-29T20:29:16.530Z,2.35
2023-06-29T20:31:43.759Z,1.80
2023-06-29T20:34:10.976Z,1.60
2023-06-29T20:36:38.295Z,1.63
2023-06-29T20:39:05.612Z,1.75
2023-06-29T20:41:32.970Z,1.30
2023-06-29T20:44:00.061Z,1.52
2023-06-29T20:46:28.648Z,1.60
2023-06-29T20:48:55.960Z,1.80
2023-06-29T20:51:23.216Z,1.52
2023-06-29T20:53:51.079Z,1.48
2023-06-29T20:56:18.310Z,1.67
2023-06-29T20:58:45.708Z,1.70
2023-06-29T21:01:13.125Z,2.22
2023-06-29T21:03:45.267Z,1.80
2023-06-29T21:06:12.815Z,1.52
2023-06-29T21:08:40.048Z,1.77
2023-06-29T21:11:07.360Z,2.00
2023-06-29T21:13:34.732Z,1.75
2023-06-29T21:16:02.126Z,2.47
2023-06-29T21:18:29.648Z,2.10
2023-06-29T21:20:57.214Z,2.10
2023-06-29T21:23:24.374Z,1.52
2023-06-29T21:25:51.884Z,1.73
2023-06-29T21:28:19.607Z,1.92
2023-06-29T21:30:47.064Z,1.80
2023-06-29T21:33:15.444Z,1.63
2023-06-29T21:35:42.980Z,1.90
2023-06-29T21:38:12.106Z,1.77
2023-06-29T21:40:40.150Z,1.55
2023-06-29T21:43:07.497Z,1.42
2023-06-29T21:45:34.621Z,1.50
2023-06-29T21:48:01.922Z,1.50
2023-06-29T21:50:29.116Z,1.33
2023-06-29T21:52:56.393Z,1.40
2023-06-29T21:55:23.478Z,1.67
2023-06-29T21:57:50.793Z,1.50
2023-06-29T22:00:18.630Z,1.73
2023-06-29T22:02:46.189Z,1.40
2023-06-29T22:05:16.047Z,1.40
2023-06-29T22:07:43.418Z,1.48
2023-06-29T22:10:10.820Z,1.77
2023-06-29T22:12:42.732Z,1.83
2023-06-29T22:15:14.251Z,1.63
2023-06-29T22:17:42.666Z,1.60
2023-06-29T22:20:24.305Z,1.65
2023-06-29T22:22:51.878Z,1.40
2023-06-29T22:25:19.088Z,1.85
2023-06-29T22:27:46.184Z,1.63
2023-06-29T22:30:13.561Z,2.13
2023-06-29T22:32:41.899Z,1.30
2023-06-29T22:35:12.257Z,1.83
2023-06-29T22:37:39.608Z,1.35
2023-06-29T22:40:07.482Z,1.55
2023-06-29T22:42:34.591Z,1.67
2023-06-29T22:45:01.896Z,1.38
2023-06-29T22:47:29.216Z,1.50
2023-06-29T22:49:56.398Z,1.55
2023-06-29T22:52:24.236Z,1.52
2023-06-29T22:54:51.639Z,1.45
2023-06-29T22:57:22.300Z,1.20
2023-06-29T22:59:50.812Z,1.20
2023-06-29T23:02:18.678Z,1.70
2023-06-29T23:04:46.250Z,1.48
2023-06-29T23:07:13.465Z,1.30
2023-06-29T23:09:40.691Z,1.23
2023-06-29T23:12:08.437Z,2.00
2023-06-29T23:14:36.455Z,1.23
2023-06-29T23:17:04.345Z,1.40
2023-06-29T23:19:35.579Z,1.02
2023-06-29T23:22:03.828Z,1.58
2023-06-29T23:24:31.235Z,1.35
2023-06-29T23:26:58.424Z,1.40
2023-06-29T23:29:25.580Z,1.40
2023-06-29T23:31:52.954Z,1.45
2023-06-29T23:34:22.475Z,1.90
2023-06-29T23:36:49.800Z,1.48
2023-06-29T23:39:17.168Z,1.40
2023-06-29T23:41:44.285Z,1.75
2023-06-29T23:44:12.351Z,1.40
2023-06-29T23:46:45.134Z,1.73
2023-06-29T23:49:20.079Z,1.45
2023-06-29T23:51:48.586Z,2.25
2023-06-29T23:54:16.640Z,1.40
2023-06-29T23:56:47.709Z,1.20
2023-06-29T23:59:14.845Z,1.63
